Aviation Digital Data Service (ADDS)

Output produced by METARs form (2210 UTC 06 July 2015)
found at http://aviationweather.gov/adds/metars/
 
KCKB 062108Z 0621/0718 36006KT P6SM VCSH FEW030 SCT040 BKN090 
     FM070300 22004KT P6SM BKN025 
     FM070900 20004KT 2SM BR BKN025 
     FM071200 20004KT 3SM BR SCT040 
     FM071300 21006KT P6SM SCT090